sensor_id;sensor_type;location;lat;lon;timestamp;temperature;humidity
16315;DHT22;8266;52.150;4.768;2022-08-05T00:01:44;23.10;99.90
16315;DHT22;8266;52.150;4.768;2022-08-05T00:04:11;23.10;99.90
16315;DHT22;8266;52.150;4.768;2022-08-05T00:06:38;23.10;99.90
16315;DHT22;8266;52.150;4.768;2022-08-05T00:09:05;23.10;99.90
16315;DHT22;8266;52.150;4.768;2022-08-05T00:11:32;23.10;99.90
16315;DHT22;8266;52.150;4.768;2022-08-05T00:14:00;23.10;99.90
16315;DHT22;8266;52.150;4.768;2022-08-05T00:16:27;23.10;99.90
16315;DHT22;8266;52.150;4.768;2022-08-05T00:18:56;23.00;99.90
16315;DHT22;8266;52.150;4.768;2022-08-05T00:21:22;23.00;99.90
16315;DHT22;8266;52.150;4.768;2022-08-05T00:23:49;23.00;99.90
16315;DHT22;8266;52.150;4.768;2022-08-05T00:26:16;23.00;99.90
16315;DHT22;8266;52.150;4.768;2022-08-05T00:28:44;23.00;99.90
16315;DHT22;8266;52.150;4.768;2022-08-05T00:31:11;22.90;99.90
16315;DHT22;8266;52.150;4.768;2022-08-05T00:33:38;22.90;99.90
16315;DHT22;8266;52.150;4.768;2022-08-05T00:36:09;22.90;99.90
16315;DHT22;8266;52.150;4.768;2022-08-05T00:38:39;22.90;99.90
16315;DHT22;8266;52.150;4.768;2022-08-05T00:41:06;22.80;99.90
16315;DHT22;8266;52.150;4.768;2022-08-05T00:43:33;22.80;99.90
16315;DHT22;8266;52.150;4.768;2022-08-05T00:46:01;22.80;99.90
16315;DHT22;8266;52.150;4.768;2022-08-05T00:48:28;22.80;99.90
16315;DHT22;8266;52.150;4.768;2022-08-05T00:50:55;22.80;99.90
16315;DHT22;8266;52.150;4.768;2022-08-05T00:53:24;22.80;99.90
16315;DHT22;8266;52.150;4.768;2022-08-05T00:55:50;22.80;99.90
16315;DHT22;8266;52.150;4.768;2022-08-05T00:58:18;22.70;99.90
16315;DHT22;8266;52.150;4.768;2022-08-05T01:00:45;22.70;99.90
16315;DHT22;8266;52.150;4.768;2022-08-05T01:03:12;22.70;99.90
16315;DHT22;8266;52.150;4.768;2022-08-05T01:05:40;22.70;99.90
16315;DHT22;8266;52.150;4.768;2022-08-05T01:08:07;22.70;99.90
16315;DHT22;8266;52.150;4.768;2022-08-05T01:10:40;22.70;99.90
16315;DHT22;8266;52.150;4.768;2022-08-05T01:13:14;22.70;99.90
16315;DHT22;8266;52.150;4.768;2022-08-05T01:15:47;22.70;99.90
16315;DHT22;8266;52.150;4.768;2022-08-05T01:18:24;22.60;99.90
16315;DHT22;8266;52.150;4.768;2022-08-05T01:21:06;22.60;99.90
16315;DHT22;8266;52.150;4.768;2022-08-05T01:23:52;22.60;99.90
16315;DHT22;8266;52.150;4.768;2022-08-05T01:26:42;22.50;99.90
16315;DHT22;8266;52.150;4.768;2022-08-05T01:29:16;22.50;99.90
16315;DHT22;8266;52.150;4.768;2022-08-05T01:31:47;22.50;99.90
16315;DHT22;8266;52.150;4.768;2022-08-05T01:34:18;22.40;99.90
16315;DHT22;8266;52.150;4.768;2022-08-05T01:36:49;22.50;99.90
16315;DHT22;8266;52.150;4.768;2022-08-05T01:39:23;22.40;99.90
16315;DHT22;8266;52.150;4.768;2022-08-05T01:41:52;22.40;99.90
16315;DHT22;8266;52.150;4.768;2022-08-05T01:44:22;22.40;99.90
16315;DHT22;8266;52.150;4.768;2022-08-05T01:46:51;22.40;99.90
16315;DHT22;8266;52.150;4.768;2022-08-05T01:49:21;22.40;99.90
16315;DHT22;8266;52.150;4.768;2022-08-05T01:51:54;22.40;99.90
16315;DHT22;8266;52.150;4.768;2022-08-05T01:54:24;22.40;99.90
16315;DHT22;8266;52.150;4.768;2022-08-05T01:56:53;22.40;99.90
16315;DHT22;8266;52.150;4.768;2022-08-05T01:59:25;22.40;99.90
16315;DHT22;8266;52.150;4.768;2022-08-05T02:01:55;22.40;99.90
16315;DHT22;8266;52.150;4.768;2022-08-05T02:04:25;22.40;99.90
16315;DHT22;8266;52.150;4.768;2022-08-05T02:06:55;22.30;99.90
16315;DHT22;8266;52.150;4.768;2022-08-05T02:09:23;22.30;99.90
16315;DHT22;8266;52.150;4.768;2022-08-05T02:11:56;22.30;99.90
16315;DHT22;8266;52.150;4.768;2022-08-05T02:14:29;22.30;99.90
16315;DHT22;8266;52.150;4.768;2022-08-05T02:17:03;22.20;99.90
16315;DHT22;8266;52.150;4.768;2022-08-05T02:19:33;22.20;99.90
16315;DHT22;8266;52.150;4.768;2022-08-05T02:22:07;22.20;99.90
16315;DHT22;8266;52.150;4.768;2022-08-05T02:24:37;22.20;99.90
16315;DHT22;8266;52.150;4.768;2022-08-05T02:27:08;22.20;99.90
16315;DHT22;8266;52.150;4.768;2022-08-05T02:29:40;22.10;99.90
16315;DHT22;8266;52.150;4.768;2022-08-05T02:32:10;22.10;99.90
16315;DHT22;8266;52.150;4.768;2022-08-05T02:34:37;22.10;99.90
16315;DHT22;8266;52.150;4.768;2022-08-05T02:37:08;22.10;99.90
16315;DHT22;8266;52.150;4.768;2022-08-05T02:39:37;22.00;99.90
16315;DHT22;8266;52.150;4.768;2022-08-05T02:42:07;22.00;99.90
16315;DHT22;8266;52.150;4.768;2022-08-05T02:44:38;22.00;99.90
16315;DHT22;8266;52.150;4.768;2022-08-05T02:47:08;21.90;99.90
16315;DHT22;8266;52.150;4.768;2022-08-05T02:49:37;21.90;99.90
16315;DHT22;8266;52.150;4.768;2022-08-05T02:52:07;21.90;99.90
16315;DHT22;8266;52.150;4.768;2022-08-05T02:54:38;21.80;99.90
16315;DHT22;8266;52.150;4.768;2022-08-05T02:57:07;21.70;99.90
16315;DHT22;8266;52.150;4.768;2022-08-05T02:59:40;21.70;99.90
16315;DHT22;8266;52.150;4.768;2022-08-05T03:02:08;21.60;99.90
16315;DHT22;8266;52.150;4.768;2022-08-05T03:04:37;21.60;99.90
16315;DHT22;8266;52.150;4.768;2022-08-05T03:07:05;21.60;99.90
16315;DHT22;8266;52.150;4.768;2022-08-05T03:09:35;21.50;99.90
16315;DHT22;8266;52.150;4.768;2022-08-05T03:12:03;21.50;99.90
16315;DHT22;8266;52.150;4.768;2022-08-05T03:14:30;21.50;99.90
16315;DHT22;8266;52.150;4.768;2022-08-05T03:16:59;21.40;99.90
16315;DHT22;8266;52.150;4.768;2022-08-05T03:19:26;21.40;99.90
16315;DHT22;8266;52.150;4.768;2022-08-05T03:21:53;21.40;99.90
16315;DHT22;8266;52.150;4.768;2022-08-05T03:24:21;21.40;99.90
16315;DHT22;8266;52.150;4.768;2022-08-05T03:26:48;21.40;99.90
16315;DHT22;8266;52.150;4.768;2022-08-05T03:29:16;21.30;99.90
16315;DHT22;8266;52.150;4.768;2022-08-05T03:31:43;21.30;99.90
16315;DHT22;8266;52.150;4.768;2022-08-05T03:34:11;21.40;99.90
16315;DHT22;8266;52.150;4.768;2022-08-05T03:36:38;21.30;99.90
16315;DHT22;8266;52.150;4.768;2022-08-05T03:39:06;21.30;99.90
16315;DHT22;8266;52.150;4.768;2022-08-05T03:41:34;21.30;99.90
16315;DHT22;8266;52.150;4.768;2022-08-05T03:44:01;21.30;99.90
16315;DHT22;8266;52.150;4.768;2022-08-05T03:46:28;21.20;99.90
16315;DHT22;8266;52.150;4.768;2022-08-05T03:48:58;21.20;99.90
16315;DHT22;8266;52.150;4.768;2022-08-05T03:51:30;21.20;99.90
16315;DHT22;8266;52.150;4.768;2022-08-05T03:54:02;21.20;99.90
16315;DHT22;8266;52.150;4.768;2022-08-05T03:56:35;21.20;99.90
16315;DHT22;8266;52.150;4.768;2022-08-05T03:59:07;21.10;99.90
16315;DHT22;8266;52.150;4.768;2022-08-05T04:01:39;21.10;99.90
16315;DHT22;8266;52.150;4.768;2022-08-05T04:04:09;21.00;99.90
16315;DHT22;8266;52.150;4.768;2022-08-05T04:06:42;21.00;99.90
16315;DHT22;8266;52.150;4.768;2022-08-05T04:09:09;21.00;99.90
16315;DHT22;8266;52.150;4.768;2022-08-05T04:11:36;20.90;99.90
16315;DHT22;8266;52.150;4.768;2022-08-05T04:14:03;20.90;99.90
16315;DHT22;8266;52.150;4.768;2022-08-05T04:16:34;20.90;99.90
16315;DHT22;8266;52.150;4.768;2022-08-05T04:19:01;20.80;99.90
16315;DHT22;8266;52.150;4.768;2022-08-05T04:21:28;20.80;99.90
16315;DHT22;8266;52.150;4.768;2022-08-05T04:23:57;20.80;99.90
16315;DHT22;8266;52.150;4.768;2022-08-05T04:26:24;20.70;99.90
16315;DHT22;8266;52.150;4.768;2022-08-05T04:28:51;20.70;99.90
16315;DHT22;8266;52.150;4.768;2022-08-05T04:31:18;20.70;99.90
16315;DHT22;8266;52.150;4.768;2022-08-05T04:33:45;20.60;99.90
16315;DHT22;8266;52.150;4.768;2022-08-05T04:36:12;20.60;99.90
16315;DHT22;8266;52.150;4.768;2022-08-05T04:38:41;20.70;99.90
16315;DHT22;8266;52.150;4.768;2022-08-05T04:41:10;20.60;99.90
16315;DHT22;8266;52.150;4.768;2022-08-05T04:43:37;20.70;99.90
16315;DHT22;8266;52.150;4.768;2022-08-05T04:46:05;20.60;99.90
16315;DHT22;8266;52.150;4.768;2022-08-05T04:48:32;20.60;99.90
16315;DHT22;8266;52.150;4.768;2022-08-05T04:50:59;20.60;99.90
16315;DHT22;8266;52.150;4.768;2022-08-05T04:53:26;20.60;99.90
16315;DHT22;8266;52.150;4.768;2022-08-05T04:55:53;20.60;99.90
16315;DHT22;8266;52.150;4.768;2022-08-05T04:58:22;20.60;99.90
16315;DHT22;8266;52.150;4.768;2022-08-05T05:00:49;20.50;99.90
16315;DHT22;8266;52.150;4.768;2022-08-05T05:03:16;20.50;99.90
16315;DHT22;8266;52.150;4.768;2022-08-05T05:05:43;20.40;99.90
16315;DHT22;8266;52.150;4.768;2022-08-05T05:08:10;20.50;99.90
16315;DHT22;8266;52.150;4.768;2022-08-05T05:10:40;20.40;99.90
16315;DHT22;8266;52.150;4.768;2022-08-05T05:13:11;20.40;99.90
16315;DHT22;8266;52.150;4.768;2022-08-05T05:15:41;20.40;99.90
16315;DHT22;8266;52.150;4.768;2022-08-05T05:18:11;20.40;99.90
16315;DHT22;8266;52.150;4.768;2022-08-05T05:20:38;20.40;99.90
16315;DHT22;8266;52.150;4.768;2022-08-05T05:23:05;20.40;99.90
16315;DHT22;8266;52.150;4.768;2022-08-05T05:25:32;20.40;99.90
16315;DHT22;8266;52.150;4.768;2022-08-05T05:27:59;20.40;99.90
16315;DHT22;8266;52.150;4.768;2022-08-05T05:30:26;20.40;99.90
16315;DHT22;8266;52.150;4.768;2022-08-05T05:32:54;20.40;99.90
16315;DHT22;8266;52.150;4.768;2022-08-05T05:35:22;20.40;99.90
16315;DHT22;8266;52.150;4.768;2022-08-05T05:37:50;20.40;99.90
16315;DHT22;8266;52.150;4.768;2022-08-05T05:40:18;20.50;99.90
16315;DHT22;8266;52.150;4.768;2022-08-05T05:42:45;20.50;99.90
16315;DHT22;8266;52.150;4.768;2022-08-05T05:45:13;20.50;99.90
16315;DHT22;8266;52.150;4.768;2022-08-05T05:47:40;20.60;99.90
16315;DHT22;8266;52.150;4.768;2022-08-05T05:50:09;20.60;99.90
16315;DHT22;8266;52.150;4.768;2022-08-05T05:52:37;20.60;99.90
16315;DHT22;8266;52.150;4.768;2022-08-05T05:55:06;20.60;99.90
16315;DHT22;8266;52.150;4.768;2022-08-05T05:57:34;20.70;99.90
16315;DHT22;8266;52.150;4.768;2022-08-05T06:00:01;20.70;99.90
16315;DHT22;8266;52.150;4.768;2022-08-05T06:02:28;20.70;99.90
16315;DHT22;8266;52.150;4.768;2022-08-05T06:04:55;20.80;99.90
16315;DHT22;8266;52.150;4.768;2022-08-05T06:07:23;20.80;99.90
16315;DHT22;8266;52.150;4.768;2022-08-05T06:09:50;20.90;99.90
16315;DHT22;8266;52.150;4.768;2022-08-05T06:12:17;20.90;99.90
16315;DHT22;8266;52.150;4.768;2022-08-05T06:14:44;20.90;99.90
16315;DHT22;8266;52.150;4.768;2022-08-05T06:17:11;20.90;99.90
16315;DHT22;8266;52.150;4.768;2022-08-05T06:19:38;21.00;99.90
16315;DHT22;8266;52.150;4.768;2022-08-05T06:22:07;21.00;99.90
16315;DHT22;8266;52.150;4.768;2022-08-05T06:24:39;21.00;99.90
16315;DHT22;8266;52.150;4.768;2022-08-05T06:27:07;21.10;99.90
16315;DHT22;8266;52.150;4.768;2022-08-05T06:29:34;21.10;99.90
16315;DHT22;8266;52.150;4.768;2022-08-05T06:32:04;21.20;99.90
16315;DHT22;8266;52.150;4.768;2022-08-05T06:34:34;21.20;99.90
16315;DHT22;8266;52.150;4.768;2022-08-05T06:37:07;21.30;99.90
16315;DHT22;8266;52.150;4.768;2022-08-05T06:39:36;21.30;99.90
16315;DHT22;8266;52.150;4.768;2022-08-05T06:42:04;21.30;99.90
16315;DHT22;8266;52.150;4.768;2022-08-05T06:44:31;21.40;99.90
16315;DHT22;8266;52.150;4.768;2022-08-05T06:46:58;21.40;99.90
16315;DHT22;8266;52.150;4.768;2022-08-05T06:49:32;21.60;99.90
16315;DHT22;8266;52.150;4.768;2022-08-05T06:51:59;21.70;99.90
16315;DHT22;8266;52.150;4.768;2022-08-05T06:54:26;21.90;99.90
16315;DHT22;8266;52.150;4.768;2022-08-05T06:56:54;22.10;99.90
16315;DHT22;8266;52.150;4.768;2022-08-05T06:59:21;22.30;99.90
16315;DHT22;8266;52.150;4.768;2022-08-05T07:01:48;22.40;99.90
16315;DHT22;8266;52.150;4.768;2022-08-05T07:04:15;22.60;99.90
16315;DHT22;8266;52.150;4.768;2022-08-05T07:06:42;22.80;99.90
16315;DHT22;8266;52.150;4.768;2022-08-05T07:09:09;23.00;99.90
16315;DHT22;8266;52.150;4.768;2022-08-05T07:11:38;23.20;99.90
16315;DHT22;8266;52.150;4.768;2022-08-05T07:14:07;23.30;99.90
16315;DHT22;8266;52.150;4.768;2022-08-05T07:16:51;23.50;99.90
16315;DHT22;8266;52.150;4.768;2022-08-05T07:19:24;23.70;99.90
16315;DHT22;8266;52.150;4.768;2022-08-05T07:21:54;23.90;99.90
16315;DHT22;8266;52.150;4.768;2022-08-05T07:24:21;24.00;99.90
16315;DHT22;8266;52.150;4.768;2022-08-05T07:26:49;24.20;99.90
16315;DHT22;8266;52.150;4.768;2022-08-05T07:29:17;24.40;99.90
16315;DHT22;8266;52.150;4.768;2022-08-05T07:31:44;24.60;99.90
16315;DHT22;8266;52.150;4.768;2022-08-05T07:34:11;24.80;99.90
16315;DHT22;8266;52.150;4.768;2022-08-05T07:36:38;25.00;99.90
16315;DHT22;8266;52.150;4.768;2022-08-05T07:39:07;25.20;99.90
16315;DHT22;8266;52.150;4.768;2022-08-05T07:41:35;25.40;99.90
16315;DHT22;8266;52.150;4.768;2022-08-05T07:44:03;25.60;99.90
16315;DHT22;8266;52.150;4.768;2022-08-05T07:46:31;25.80;99.90
16315;DHT22;8266;52.150;4.768;2022-08-05T07:49:00;25.90;99.90
16315;DHT22;8266;52.150;4.768;2022-08-05T07:51:27;25.90;99.90
16315;DHT22;8266;52.150;4.768;2022-08-05T07:53:54;25.80;99.90
16315;DHT22;8266;52.150;4.768;2022-08-05T07:56:21;25.70;99.70
16315;DHT22;8266;52.150;4.768;2022-08-05T07:58:48;25.60;99.90
16315;DHT22;8266;52.150;4.768;2022-08-05T08:01:15;25.50;99.90
16315;DHT22;8266;52.150;4.768;2022-08-05T08:03:44;25.30;99.90
16315;DHT22;8266;52.150;4.768;2022-08-05T08:06:11;25.20;99.80
16315;DHT22;8266;52.150;4.768;2022-08-05T08:08:38;25.10;99.70
16315;DHT22;8266;52.150;4.768;2022-08-05T08:11:05;25.00;99.40
16315;DHT22;8266;52.150;4.768;2022-08-05T08:13:32;24.80;99.40
16315;DHT22;8266;52.150;4.768;2022-08-05T08:15:59;24.70;99.70
16315;DHT22;8266;52.150;4.768;2022-08-05T08:18:26;24.60;99.90
16315;DHT22;8266;52.150;4.768;2022-08-05T08:20:54;24.50;99.60
16315;DHT22;8266;52.150;4.768;2022-08-05T08:23:21;24.40;99.20
16315;DHT22;8266;52.150;4.768;2022-08-05T08:25:50;24.30;99.40
16315;DHT22;8266;52.150;4.768;2022-08-05T08:28:17;24.20;99.50
16315;DHT22;8266;52.150;4.768;2022-08-05T08:30:45;24.10;99.60
16315;DHT22;8266;52.150;4.768;2022-08-05T08:33:11;24.00;99.80
16315;DHT22;8266;52.150;4.768;2022-08-05T08:35:38;23.90;99.30
16315;DHT22;8266;52.150;4.768;2022-08-05T08:38:10;23.90;99.50
16315;DHT22;8266;52.150;4.768;2022-08-05T08:40:38;23.80;99.40
16315;DHT22;8266;52.150;4.768;2022-08-05T08:43:06;23.80;99.20
16315;DHT22;8266;52.150;4.768;2022-08-05T08:45:39;23.70;98.70
16315;DHT22;8266;52.150;4.768;2022-08-05T08:48:11;23.70;98.20
16315;DHT22;8266;52.150;4.768;2022-08-05T08:50:43;23.70;98.10
16315;DHT22;8266;52.150;4.768;2022-08-05T08:53:27;23.60;98.30
16315;DHT22;8266;52.150;4.768;2022-08-05T08:56:03;23.60;98.30
16315;DHT22;8266;52.150;4.768;2022-08-05T08:58:38;23.60;98.60
16315;DHT22;8266;52.150;4.768;2022-08-05T09:01:26;23.60;98.60
16315;DHT22;8266;52.150;4.768;2022-08-05T09:04:13;23.60;98.90
16315;DHT22;8266;52.150;4.768;2022-08-05T09:06:47;23.60;98.90
16315;DHT22;8266;52.150;4.768;2022-08-05T09:09:19;23.50;98.50
16315;DHT22;8266;52.150;4.768;2022-08-05T09:11:46;23.50;98.40
16315;DHT22;8266;52.150;4.768;2022-08-05T09:14:13;23.50;98.50
16315;DHT22;8266;52.150;4.768;2022-08-05T09:16:40;23.60;98.70
16315;DHT22;8266;52.150;4.768;2022-08-05T09:19:07;23.60;98.70
16315;DHT22;8266;52.150;4.768;2022-08-05T09:21:34;23.60;98.80
16315;DHT22;8266;52.150;4.768;2022-08-05T09:24:03;23.60;98.80
16315;DHT22;8266;52.150;4.768;2022-08-05T09:26:34;23.60;98.60
16315;DHT22;8266;52.150;4.768;2022-08-05T09:29:03;23.60;98.30
16315;DHT22;8266;52.150;4.768;2022-08-05T09:31:32;23.60;98.30
16315;DHT22;8266;52.150;4.768;2022-08-05T09:34:01;23.70;97.90
16315;DHT22;8266;52.150;4.768;2022-08-05T09:36:39;23.70;97.70
16315;DHT22;8266;52.150;4.768;2022-08-05T09:39:08;23.70;97.40
16315;DHT22;8266;52.150;4.768;2022-08-05T09:41:53;23.80;97.20
16315;DHT22;8266;52.150;4.768;2022-08-05T09:44:33;23.90;96.50
16315;DHT22;8266;52.150;4.768;2022-08-05T09:47:07;24.00;96.30
16315;DHT22;8266;52.150;4.768;2022-08-05T09:49:39;24.00;96.40
16315;DHT22;8266;52.150;4.768;2022-08-05T09:52:21;24.10;96.00
16315;DHT22;8266;52.150;4.768;2022-08-05T09:54:56;24.20;96.00
16315;DHT22;8266;52.150;4.768;2022-08-05T09:57:36;24.20;95.90
16315;DHT22;8266;52.150;4.768;2022-08-05T10:00:09;24.20;95.70
16315;DHT22;8266;52.150;4.768;2022-08-05T10:02:38;24.30;95.30
16315;DHT22;8266;52.150;4.768;2022-08-05T10:05:08;24.30;95.10
16315;DHT22;8266;52.150;4.768;2022-08-05T10:07:46;24.30;95.00
16315;DHT22;8266;52.150;4.768;2022-08-05T10:10:14;24.30;94.70
16315;DHT22;8266;52.150;4.768;2022-08-05T10:16:02;24.30;94.30
16315;DHT22;8266;52.150;4.768;2022-08-05T10:18:30;24.20;94.50
16315;DHT22;8266;52.150;4.768;2022-08-05T10:20:59;24.20;94.20
16315;DHT22;8266;52.150;4.768;2022-08-05T10:23:29;24.10;93.90
16315;DHT22;8266;52.150;4.768;2022-08-05T10:25:57;24.10;94.00
16315;DHT22;8266;52.150;4.768;2022-08-05T10:28:25;24.00;94.00
16315;DHT22;8266;52.150;4.768;2022-08-05T10:30:52;24.00;93.90
16315;DHT22;8266;52.150;4.768;2022-08-05T10:33:23;24.00;93.80
16315;DHT22;8266;52.150;4.768;2022-08-05T10:35:51;24.00;94.10
16315;DHT22;8266;52.150;4.768;2022-08-05T10:38:19;24.00;94.40
16315;DHT22;8266;52.150;4.768;2022-08-05T10:40:55;24.00;94.60
16315;DHT22;8266;52.150;4.768;2022-08-05T10:43:33;24.00;95.10
16315;DHT22;8266;52.150;4.768;2022-08-05T10:46:02;24.00;95.10
16315;DHT22;8266;52.150;4.768;2022-08-05T10:48:36;24.00;95.20
16315;DHT22;8266;52.150;4.768;2022-08-05T10:51:10;24.00;94.80
16315;DHT22;8266;52.150;4.768;2022-08-05T10:53:41;24.00;95.00
16315;DHT22;8266;52.150;4.768;2022-08-05T10:56:14;24.10;94.80
16315;DHT22;8266;52.150;4.768;2022-08-05T11:01:31;24.10;94.10
16315;DHT22;8266;52.150;4.768;2022-08-05T11:04:01;24.10;94.30
16315;DHT22;8266;52.150;4.768;2022-08-05T11:06:30;24.20;94.20
16315;DHT22;8266;52.150;4.768;2022-08-05T11:09:12;24.20;94.20
16315;DHT22;8266;52.150;4.768;2022-08-05T11:11:40;24.20;94.40
16315;DHT22;8266;52.150;4.768;2022-08-05T11:14:10;24.10;94.20
16315;DHT22;8266;52.150;4.768;2022-08-05T11:16:38;24.20;94.10
16315;DHT22;8266;52.150;4.768;2022-08-05T11:19:26;24.20;94.10
16315;DHT22;8266;52.150;4.768;2022-08-05T11:21:53;24.20;94.10
16315;DHT22;8266;52.150;4.768;2022-08-05T11:24:21;24.20;94.40
16315;DHT22;8266;52.150;4.768;2022-08-05T11:29:47;24.20;94.70
16315;DHT22;8266;52.150;4.768;2022-08-05T11:32:27;24.20;94.70
16315;DHT22;8266;52.150;4.768;2022-08-05T11:34:57;24.30;94.60
16315;DHT22;8266;52.150;4.768;2022-08-05T11:37:58;24.30;94.00
16315;DHT22;8266;52.150;4.768;2022-08-05T11:41:01;24.30;94.20
16315;DHT22;8266;52.150;4.768;2022-08-05T11:43:38;24.40;94.10
16315;DHT22;8266;52.150;4.768;2022-08-05T11:46:09;24.50;94.50
16315;DHT22;8266;52.150;4.768;2022-08-05T11:48:41;24.60;94.20
16315;DHT22;8266;52.150;4.768;2022-08-05T11:51:32;24.70;94.50
16315;DHT22;8266;52.150;4.768;2022-08-05T11:54:08;24.80;94.70
16315;DHT22;8266;52.150;4.768;2022-08-05T11:56:49;25.00;94.90
16315;DHT22;8266;52.150;4.768;2022-08-05T11:59:18;25.10;93.40
16315;DHT22;8266;52.150;4.768;2022-08-05T12:01:56;25.30;94.10
16315;DHT22;8266;52.150;4.768;2022-08-05T12:04:25;25.40;93.40
16315;DHT22;8266;52.150;4.768;2022-08-05T12:06:54;25.50;92.90
16315;DHT22;8266;52.150;4.768;2022-08-05T12:09:31;25.60;92.20
16315;DHT22;8266;52.150;4.768;2022-08-05T12:12:08;25.60;92.20
16315;DHT22;8266;52.150;4.768;2022-08-05T12:14:42;25.50;92.40
16315;DHT22;8266;52.150;4.768;2022-08-05T12:17:14;25.60;91.90
16315;DHT22;8266;52.150;4.768;2022-08-05T12:19:47;25.60;91.40
16315;DHT22;8266;52.150;4.768;2022-08-05T12:22:17;25.70;90.70
16315;DHT22;8266;52.150;4.768;2022-08-05T12:24:46;25.70;89.70
16315;DHT22;8266;52.150;4.768;2022-08-05T12:27:20;25.70;89.10
16315;DHT22;8266;52.150;4.768;2022-08-05T12:30:03;25.80;85.20
16315;DHT22;8266;52.150;4.768;2022-08-05T12:32:31;25.80;84.90
16315;DHT22;8266;52.150;4.768;2022-08-05T12:34:58;25.90;85.30
16315;DHT22;8266;52.150;4.768;2022-08-05T12:37:30;25.90;85.90
16315;DHT22;8266;52.150;4.768;2022-08-05T12:39:58;26.00;86.70
16315;DHT22;8266;52.150;4.768;2022-08-05T12:42:30;26.00;85.30
16315;DHT22;8266;52.150;4.768;2022-08-05T12:45:11;26.10;84.90
16315;DHT22;8266;52.150;4.768;2022-08-05T12:47:55;26.20;85.80
16315;DHT22;8266;52.150;4.768;2022-08-05T12:50:22;26.30;83.60
16315;DHT22;8266;52.150;4.768;2022-08-05T12:53:00;26.40;85.00
16315;DHT22;8266;52.150;4.768;2022-08-05T12:55:31;26.60;84.00
16315;DHT22;8266;52.150;4.768;2022-08-05T12:57:58;26.70;84.60
16315;DHT22;8266;52.150;4.768;2022-08-05T13:00:27;26.80;84.50
16315;DHT22;8266;52.150;4.768;2022-08-05T13:02:55;26.80;83.70
16315;DHT22;8266;52.150;4.768;2022-08-05T13:05:22;27.00;83.10
16315;DHT22;8266;52.150;4.768;2022-08-05T13:07:49;27.00;83.30
16315;DHT22;8266;52.150;4.768;2022-08-05T13:10:17;27.10;82.10
16315;DHT22;8266;52.150;4.768;2022-08-05T13:12:45;27.20;80.90
16315;DHT22;8266;52.150;4.768;2022-08-05T13:15:13;27.20;80.70
16315;DHT22;8266;52.150;4.768;2022-08-05T13:17:40;27.30;80.60
16315;DHT22;8266;52.150;4.768;2022-08-05T13:20:18;27.40;78.70
16315;DHT22;8266;52.150;4.768;2022-08-05T13:22:47;27.40;78.30
16315;DHT22;8266;52.150;4.768;2022-08-05T13:25:17;27.30;77.20
16315;DHT22;8266;52.150;4.768;2022-08-05T13:27:47;27.30;77.10
16315;DHT22;8266;52.150;4.768;2022-08-05T13:30:18;27.20;75.60
16315;DHT22;8266;52.150;4.768;2022-08-05T13:32:50;27.20;76.60
16315;DHT22;8266;52.150;4.768;2022-08-05T13:35:17;27.20;76.10
16315;DHT22;8266;52.150;4.768;2022-08-05T13:37:45;27.20;76.30
16315;DHT22;8266;52.150;4.768;2022-08-05T13:40:12;27.20;77.30
16315;DHT22;8266;52.150;4.768;2022-08-05T13:42:41;27.20;77.10
16315;DHT22;8266;52.150;4.768;2022-08-05T13:45:12;27.20;75.90
16315;DHT22;8266;52.150;4.768;2022-08-05T13:47:39;27.20;75.70
16315;DHT22;8266;52.150;4.768;2022-08-05T13:50:07;27.20;76.20
16315;DHT22;8266;52.150;4.768;2022-08-05T13:52:34;27.10;78.40
16315;DHT22;8266;52.150;4.768;2022-08-05T13:55:02;27.00;78.40
16315;DHT22;8266;52.150;4.768;2022-08-05T13:57:30;26.90;79.90
16315;DHT22;8266;52.150;4.768;2022-08-05T13:59:59;26.70;80.10
16315;DHT22;8266;52.150;4.768;2022-08-05T14:02:26;26.60;80.80
16315;DHT22;8266;52.150;4.768;2022-08-05T14:04:53;26.50;80.50
16315;DHT22;8266;52.150;4.768;2022-08-05T14:07:41;26.40;81.60
16315;DHT22;8266;52.150;4.768;2022-08-05T14:10:10;26.30;84.20
16315;DHT22;8266;52.150;4.768;2022-08-05T14:12:38;26.20;83.50
16315;DHT22;8266;52.150;4.768;2022-08-05T14:15:30;26.20;86.20
16315;DHT22;8266;52.150;4.768;2022-08-05T14:17:57;26.30;84.90
16315;DHT22;8266;52.150;4.768;2022-08-05T14:20:24;26.30;84.80
16315;DHT22;8266;52.150;4.768;2022-08-05T14:22:51;26.40;84.50
16315;DHT22;8266;52.150;4.768;2022-08-05T14:25:24;26.40;83.30
16315;DHT22;8266;52.150;4.768;2022-08-05T14:27:51;26.30;83.30
16315;DHT22;8266;52.150;4.768;2022-08-05T14:30:18;26.30;83.10
16315;DHT22;8266;52.150;4.768;2022-08-05T14:32:47;26.20;82.20
16315;DHT22;8266;52.150;4.768;2022-08-05T14:35:14;26.20;81.70
16315;DHT22;8266;52.150;4.768;2022-08-05T14:37:41;26.20;82.70
16315;DHT22;8266;52.150;4.768;2022-08-05T14:40:10;26.30;82.60
16315;DHT22;8266;52.150;4.768;2022-08-05T14:42:37;26.30;82.10
16315;DHT22;8266;52.150;4.768;2022-08-05T14:45:07;26.40;80.50
16315;DHT22;8266;52.150;4.768;2022-08-05T14:47:40;26.30;79.50
16315;DHT22;8266;52.150;4.768;2022-08-05T14:50:09;26.30;80.10
16315;DHT22;8266;52.150;4.768;2022-08-05T14:52:42;26.40;81.20
16315;DHT22;8266;52.150;4.768;2022-08-05T14:55:12;26.30;81.00
16315;DHT22;8266;52.150;4.768;2022-08-05T14:57:39;26.30;82.10
16315;DHT22;8266;52.150;4.768;2022-08-05T15:00:07;26.30;82.30
16315;DHT22;8266;52.150;4.768;2022-08-05T15:02:34;26.20;83.10
16315;DHT22;8266;52.150;4.768;2022-08-05T15:05:01;26.10;82.60
16315;DHT22;8266;52.150;4.768;2022-08-05T15:07:29;26.00;80.70
16315;DHT22;8266;52.150;4.768;2022-08-05T15:09:56;25.90;79.20
16315;DHT22;8266;52.150;4.768;2022-08-05T15:12:23;25.90;78.50
16315;DHT22;8266;52.150;4.768;2022-08-05T15:14:50;25.80;77.60
16315;DHT22;8266;52.150;4.768;2022-08-05T15:17:18;25.80;78.70
16315;DHT22;8266;52.150;4.768;2022-08-05T15:19:45;25.80;78.80
16315;DHT22;8266;52.150;4.768;2022-08-05T15:22:14;25.80;77.90
16315;DHT22;8266;52.150;4.768;2022-08-05T15:24:45;25.80;78.60
16315;DHT22;8266;52.150;4.768;2022-08-05T15:27:12;25.80;78.50
16315;DHT22;8266;52.150;4.768;2022-08-05T15:29:42;25.80;79.30
16315;DHT22;8266;52.150;4.768;2022-08-05T15:32:15;25.70;79.60
16315;DHT22;8266;52.150;4.768;2022-08-05T15:34:54;25.80;78.50
16315;DHT22;8266;52.150;4.768;2022-08-05T15:37:21;25.70;77.70
16315;DHT22;8266;52.150;4.768;2022-08-05T15:40:11;25.70;78.40
16315;DHT22;8266;52.150;4.768;2022-08-05T15:42:58;25.80;78.90
16315;DHT22;8266;52.150;4.768;2022-08-05T15:45:25;25.80;78.70
16315;DHT22;8266;52.150;4.768;2022-08-05T15:47:53;25.80;78.40
16315;DHT22;8266;52.150;4.768;2022-08-05T15:50:26;25.80;77.30
16315;DHT22;8266;52.150;4.768;2022-08-05T15:52:53;25.80;75.40
16315;DHT22;8266;52.150;4.768;2022-08-05T15:55:33;25.90;74.40
16315;DHT22;8266;52.150;4.768;2022-08-05T15:58:40;25.90;73.90
16315;DHT22;8266;52.150;4.768;2022-08-05T16:01:11;25.90;75.30
16315;DHT22;8266;52.150;4.768;2022-08-05T16:03:51;25.80;74.70
16315;DHT22;8266;52.150;4.768;2022-08-05T16:06:27;25.80;74.00
16315;DHT22;8266;52.150;4.768;2022-08-05T16:08:57;25.80;74.40
16315;DHT22;8266;52.150;4.768;2022-08-05T16:11:48;25.80;74.20
16315;DHT22;8266;52.150;4.768;2022-08-05T16:14:26;25.70;74.20